createdAt,value
2023-03-08T00:00:38.551Z,38.70
2023-03-08T00:03:42.876Z,40.60
2023-03-08T00:06:48.210Z,35.73
2023-03-08T00:09:52.172Z,38.50
2023-03-08T00:12:55.784Z,36.47
2023-03-08T00:16:01.569Z,38.00
2023-03-08T00:19:05.510Z,38.27
2023-03-08T00:22:11.604Z,37.30
2023-03-08T00:25:16.720Z,39.47
2023-03-08T00:28:20.494Z,33.43
2023-03-08T00:31:24.463Z,41.53
2023-03-08T00:34:30.521Z,37.57
2023-03-08T00:37:35.906Z,36.73
2023-03-08T00:40:39.639Z,38.67
2023-03-08T00:43:43.677Z,40.27
2023-03-08T00:46:47.472Z,35.67
2023-03-08T00:49:51.324Z,34.57
2023-03-08T00:52:56.958Z,37.40
2023-03-08T00:56:01.586Z,39.77
2023-03-08T00:59:07.710Z,35.60
2023-03-08T01:02:12.515Z,38.83
2023-03-08T01:05:17.049Z,34.93
2023-03-08T01:08:24.056Z,38.43
2023-03-08T01:11:29.133Z,40.33
2023-03-08T01:14:32.739Z,40.70
2023-03-08T01:17:36.788Z,35.40
2023-03-08T01:20:41.434Z,40.53
2023-03-08T01:23:46.639Z,43.30
2023-03-08T01:26:50.514Z,42.60
2023-03-08T01:29:54.920Z,39.00
2023-03-08T01:33:00.821Z,31.23
2023-03-08T01:36:06.421Z,34.90
2023-03-08T01:39:11.757Z,32.53
2023-03-08T01:42:15.443Z,31.53
2023-03-08T01:45:56.567Z,30.70
2023-03-08T01:49:07.845Z,31.63
2023-03-08T01:52:15.927Z,32.40
2023-03-08T01:55:21.431Z,31.70
2023-03-08T01:58:27.091Z,32.00
2023-03-08T02:01:31.091Z,32.13
2023-03-08T02:04:36.664Z,36.97
2023-03-08T02:07:42.943Z,32.40
2023-03-08T02:10:48.545Z,39.00
2023-03-08T02:13:54.431Z,30.13
2023-03-08T02:16:59.334Z,31.53
2023-03-08T02:20:12.382Z,30.73
2023-03-08T02:23:19.490Z,25.23
2023-03-08T02:26:23.304Z,23.23
2023-03-08T02:29:26.871Z,25.77
2023-03-08T02:32:31.456Z,23.27
2023-03-08T02:35:38.860Z,22.73
2023-03-08T02:38:43.917Z,23.73
2023-03-08T02:41:47.576Z,24.07
2023-03-08T02:44:51.172Z,19.07
2023-03-08T02:47:54.816Z,23.30
2023-03-08T02:50:59.022Z,21.20
2023-03-08T02:54:04.206Z,23.37
2023-03-08T02:57:08.011Z,19.70
2023-03-08T03:00:15.039Z,17.67
2023-03-08T03:03:19.160Z,19.80
2023-03-08T03:06:24.142Z,19.10
2023-03-08T03:09:32.851Z,17.40
2023-03-08T03:12:36.688Z,17.17
2023-03-08T03:15:43.391Z,19.40
2023-03-08T03:18:47.454Z,17.73
2023-03-08T03:21:51.094Z,16.50
2023-03-08T03:24:56.536Z,19.13
2023-03-08T03:28:00.488Z,23.80
2023-03-08T03:31:09.291Z,21.30
2023-03-08T03:34:13.368Z,21.90
2023-03-08T03:37:18.589Z,24.47
2023-03-08T03:40:23.818Z,20.57
2023-03-08T03:43:33.322Z,23.00
2023-03-08T03:46:37.408Z,21.77
2023-03-08T03:49:43.845Z,21.70
2023-03-08T03:52:48.831Z,21.13
2023-03-08T03:55:54.521Z,18.63
2023-03-08T03:58:59.140Z,20.40
2023-03-08T04:02:04.633Z,18.30
2023-03-08T04:05:18.412Z,19.63
2023-03-08T04:08:26.630Z,19.93
2023-03-08T04:11:36.340Z,20.93
2023-03-08T04:14:40.963Z,18.33
2023-03-08T04:17:46.839Z,21.23
2023-03-08T04:20:51.358Z,22.30
2023-03-08T04:23:56.298Z,24.50
2023-03-08T04:27:02.154Z,19.30
2023-03-08T04:30:08.197Z,21.97
2023-03-08T04:33:12.856Z,19.83
2023-03-08T04:36:24.672Z,21.80
2023-03-08T04:39:31.163Z,20.20
2023-03-08T04:42:36.706Z,24.90
2023-03-08T04:45:40.844Z,21.23
2023-03-08T04:48:48.907Z,18.60
2023-03-08T04:51:53.914Z,19.80
2023-03-08T04:54:59.350Z,20.37
2023-03-08T04:58:06.558Z,21.20
2023-03-08T05:01:11.979Z,19.30
2023-03-08T05:04:18.836Z,21.27
2023-03-08T05:07:23.762Z,21.50
2023-03-08T05:10:30.222Z,21.40
2023-03-08T05:13:36.848Z,17.53
2023-03-08T05:16:41.822Z,18.63
2023-03-08T05:19:46.646Z,18.13
2023-03-08T05:22:58.855Z,18.40
2023-03-08T05:26:10.499Z,17.53
2023-03-08T05:29:16.138Z,19.17
2023-03-08T05:32:20.870Z,16.07
2023-03-08T05:35:26.768Z,22.40
2023-03-08T05:38:31.154Z,19.37
2023-03-08T05:41:36.365Z,22.63
2023-03-08T05:44:42.596Z,19.73
2023-03-08T05:47:48.945Z,19.37
2023-03-08T05:50:53.082Z,21.53
2023-03-08T05:53:57.276Z,19.77
2023-03-08T05:57:01.291Z,17.83
2023-03-08T06:00:09.719Z,20.50
2023-03-08T06:03:29.927Z,21.87
2023-03-08T06:06:34.974Z,21.87
2023-03-08T06:09:41.397Z,20.77
2023-03-08T06:12:50.269Z,20.47
2023-03-08T06:15:59.442Z,21.13
2023-03-08T06:19:05.288Z,16.87
2023-03-08T06:22:10.967Z,18.77
2023-03-08T06:25:14.860Z,21.07
2023-03-08T06:28:19.740Z,17.73
2023-03-08T06:31:25.320Z,18.50
2023-03-08T06:34:29.411Z,12.67
2023-03-08T06:37:35.398Z,16.20
2023-03-08T06:40:40.409Z,17.47
2023-03-08T06:43:44.549Z,21.30
2023-03-08T06:46:50.419Z,20.87
2023-03-08T06:49:54.345Z,20.90
2023-03-08T06:52:58.221Z,17.37
2023-03-08T06:56:18.503Z,17.33
2023-03-08T06:59:22.500Z,16.90
2023-03-08T07:02:28.229Z,13.00
2023-03-08T07:05:32.015Z,18.33
2023-03-08T07:08:37.195Z,13.80
2023-03-08T07:11:41.150Z,17.40
2023-03-08T07:14:44.842Z,16.43
2023-03-08T07:17:51.815Z,19.80
2023-03-08T07:20:57.206Z,18.03
2023-03-08T07:24:00.961Z,16.00
2023-03-08T07:27:04.967Z,18.57
2023-03-08T07:30:11.139Z,16.60
2023-03-08T07:33:16.447Z,15.73
2023-03-08T07:36:20.355Z,12.23
2023-03-08T07:39:24.595Z,15.50
2023-03-08T07:42:28.479Z,16.63
2023-03-08T07:45:39.929Z,15.10
2023-03-08T07:48:45.358Z,13.30
2023-03-08T07:51:51.652Z,13.60
2023-03-08T07:54:55.465Z,10.57
2023-03-08T07:57:59.302Z,9.37
2023-03-08T08:01:03.574Z,13.93
2023-03-08T08:04:09.913Z,16.53
2023-03-08T08:07:15.317Z,12.90
2023-03-08T08:10:19.544Z,12.63
2023-03-08T08:13:23.694Z,13.73
2023-03-08T08:16:27.652Z,14.63
2023-03-08T08:19:33.228Z,13.00
2023-03-08T08:22:37.908Z,16.00
2023-03-08T08:25:41.854Z,13.00
2023-03-08T08:28:49.266Z,12.93
2023-03-08T08:31:53.552Z,17.00
2023-03-08T08:35:00.351Z,14.20
2023-03-08T08:38:04.346Z,13.67
2023-03-08T08:41:09.615Z,13.93
2023-03-08T08:44:13.348Z,14.77
2023-03-08T08:47:17.229Z,10.33
2023-03-08T08:50:22.538Z,12.67
2023-03-08T08:53:26.706Z,13.77
2023-03-08T08:56:31.190Z,14.27
2023-03-08T08:59:37.263Z,13.17
2023-03-08T09:02:41.226Z,12.03
2023-03-08T09:05:47.105Z,10.17
2023-03-08T09:08:52.267Z,8.37
2023-03-08T09:11:56.232Z,8.70
2023-03-08T09:15:00.769Z,8.73
2023-03-08T09:18:04.683Z,8.83
2023-03-08T09:21:10.044Z,6.07
2023-03-08T09:24:14.285Z,8.83
2023-03-08T09:27:18.138Z,12.57
2023-03-08T09:30:22.126Z,8.87
2023-03-08T09:33:26.449Z,9.17
2023-03-08T09:36:31.880Z,10.73
2023-03-08T09:39:36.086Z,7.17
2023-03-08T09:42:40.324Z,12.00
2023-03-08T09:45:44.291Z,8.57
2023-03-08T09:48:51.748Z,8.47
2023-03-08T09:52:03.455Z,7.97
2023-03-08T09:55:15.922Z,9.37
2023-03-08T09:58:32.324Z,8.40
2023-03-08T10:01:40.730Z,9.10
2023-03-08T10:05:11.460Z,7.83
2023-03-08T10:08:19.749Z,6.60
2023-03-08T10:11:32.982Z,5.23
2023-03-08T10:14:38.985Z,7.07
2023-03-08T10:17:50.664Z,7.40
2023-03-08T10:20:55.201Z,6.53
2023-03-08T10:24:07.001Z,7.87
2023-03-08T10:27:18.574Z,8.63
2023-03-08T10:30:25.333Z,5.77
2023-03-08T10:33:35.129Z,4.93
2023-03-08T10:36:49.727Z,2.97
2023-03-08T10:39:59.983Z,4.07
2023-03-08T10:43:08.101Z,4.30
2023-03-08T10:46:15.530Z,5.60
2023-03-08T10:49:20.937Z,5.87
2023-03-08T10:52:28.483Z,4.63
2023-03-08T10:55:43.546Z,6.30
2023-03-08T10:58:49.443Z,5.20
2023-03-08T11:01:55.786Z,3.03
2023-03-08T11:05:02.383Z,3.57
2023-03-08T11:08:16.582Z,3.17
2023-03-08T11:11:21.937Z,3.93
2023-03-08T11:14:26.608Z,3.43
2023-03-08T11:17:38.004Z,4.03
2023-03-08T11:20:46.850Z,4.80
2023-03-08T11:23:59.690Z,7.13
2023-03-08T11:27:20.120Z,5.13
2023-03-08T11:30:37.043Z,4.70
2023-03-08T11:34:04.578Z,4.90
2023-03-08T11:37:15.326Z,3.83
2023-03-08T11:40:26.309Z,4.07
2023-03-08T11:43:49.454Z,12.57
2023-03-08T11:47:03.557Z,3.53
2023-03-08T11:50:14.128Z,3.55
2023-03-08T11:53:24.904Z,3.63
2023-03-08T11:56:41.953Z,2.75
2023-03-08T11:59:56.957Z,2.65
2023-03-08T12:03:07.826Z,3.22
2023-03-08T12:06:27.936Z,5.28
2023-03-08T12:09:37.919Z,2.83
2023-03-08T12:12:46.428Z,3.03
2023-03-08T12:15:56.438Z,7.20
2023-03-08T12:19:07.179Z,4.85
2023-03-08T12:22:23.495Z,3.25
2023-03-08T12:25:31.077Z,2.05
2023-03-08T12:28:38.831Z,3.60
2023-03-08T12:31:47.230Z,4.65
2023-03-08T12:35:04.259Z,3.22
2023-03-08T12:38:23.993Z,2.35
2023-03-08T12:41:30.254Z,3.15
2023-03-08T12:44:34.194Z,5.03
2023-03-08T12:47:40.151Z,3.17
2023-03-08T12:50:47.831Z,6.78
2023-03-08T12:54:01.223Z,2.53
2023-03-08T12:57:18.178Z,2.90
2023-03-08T13:00:31.173Z,4.10
2023-03-08T13:03:41.556Z,4.18
2023-03-08T13:07:18.759Z,2.38
2023-03-08T13:10:27.690Z,3.63
2023-03-08T13:13:40.955Z,2.53
2023-03-08T13:16:44.928Z,3.33
2023-03-08T13:19:52.485Z,3.10
2023-03-08T13:23:04.126Z,3.22
2023-03-08T13:26:47.711Z,2.35
2023-03-08T13:29:55.272Z,1.63
2023-03-08T13:33:00.067Z,4.28
2023-03-08T13:36:07.457Z,2.55
2023-03-08T13:39:20.945Z,3.13
2023-03-08T13:42:26.205Z,3.03
2023-03-08T13:45:30.936Z,3.83
2023-03-08T13:48:37.244Z,2.50
2023-03-08T13:51:45.904Z,3.33
2023-03-08T13:54:53.420Z,2.38
2023-03-08T13:57:57.670Z,13.68
2023-03-08T14:01:03.739Z,5.22
2023-03-08T14:04:13.414Z,4.03
2023-03-08T14:07:24.121Z,3.75
2023-03-08T14:10:33.946Z,2.70
2023-03-08T14:13:40.129Z,6.00
2023-03-08T14:16:44.579Z,7.00
2023-03-08T14:19:55.569Z,5.72
2023-03-08T14:23:01.320Z,7.80
2023-03-08T14:26:05.887Z,3.60
2023-03-08T14:29:20.344Z,2.85
2023-03-08T14:32:32.367Z,4.93
2023-03-08T14:35:38.912Z,3.38
2023-03-08T14:38:44.252Z,2.50
2023-03-08T14:41:48.328Z,3.00
2023-03-08T14:44:54.136Z,4.93
2023-03-08T14:47:59.706Z,7.30
2023-03-08T14:51:05.268Z,4.40
2023-03-08T14:54:23.967Z,4.97
2023-03-08T14:57:30.722Z,3.57
2023-03-08T15:00:34.557Z,4.83
2023-03-08T15:03:38.344Z,7.97
2023-03-08T15:06:42.596Z,4.47
2023-03-08T15:09:48.721Z,6.60
2023-03-08T15:12:52.805Z,7.87
2023-03-08T15:15:56.736Z,5.50
2023-03-08T15:19:00.493Z,5.03
2023-03-08T15:22:07.043Z,5.27
2023-03-08T15:25:18.336Z,7.00
2023-03-08T15:28:23.836Z,6.87
2023-03-08T15:31:27.715Z,10.20
2023-03-08T15:34:31.475Z,6.70
2023-03-08T15:37:35.171Z,10.00
2023-03-08T15:40:40.530Z,7.37
2023-03-08T15:43:44.630Z,6.40
2023-03-08T15:46:49.923Z,11.60
2023-03-08T15:49:55.385Z,6.23
2023-03-08T15:52:59.640Z,7.80
2023-03-08T15:56:05.037Z,6.50
2023-03-08T15:59:09.169Z,5.63
2023-03-08T16:02:16.396Z,4.37
2023-03-08T16:05:23.052Z,5.27
2023-03-08T16:08:29.144Z,5.63
2023-03-08T16:11:34.297Z,6.93
2023-03-08T16:14:38.489Z,6.03
2023-03-08T16:17:42.288Z,6.93
2023-03-08T16:20:46.448Z,10.37
2023-03-08T16:23:50.411Z,9.90
2023-03-08T16:26:56.182Z,6.90
2023-03-08T16:30:00.262Z,7.23
2023-03-08T16:33:05.989Z,10.50
2023-03-08T16:36:10.876Z,11.43
2023-03-08T16:39:14.651Z,5.73
2023-03-08T16:42:20.879Z,4.77
2023-03-08T16:45:24.723Z,6.60
2023-03-08T16:48:29.881Z,15.53
2023-03-08T16:51:33.678Z,16.50
2023-03-08T16:54:38.055Z,11.00
2023-03-08T16:57:43.294Z,6.40
2023-03-08T17:00:47.298Z,12.50
2023-03-08T17:03:52.025Z,10.47
2023-03-08T17:06:55.861Z,13.33
2023-03-08T17:10:02.863Z,144.20
2023-03-08T17:13:08.876Z,63.23
2023-03-08T17:16:13.999Z,37.07
2023-03-08T17:19:17.922Z,32.67
2023-03-08T17:22:21.745Z,21.73
2023-03-08T17:25:25.546Z,21.40
2023-03-08T17:28:30.934Z,12.93
2023-03-08T17:31:34.924Z,32.00
2023-03-08T17:34:38.817Z,20.63
2023-03-08T17:37:42.971Z,25.67
2023-03-08T17:40:47.805Z,32.37
2023-03-08T17:43:53.131Z,30.43
2023-03-08T17:46:57.036Z,31.07
2023-03-08T17:50:01.051Z,29.07
2023-03-08T17:53:05.263Z,48.33
2023-03-08T17:56:10.643Z,30.63
2023-03-08T17:59:17.569Z,30.77
2023-03-08T18:02:22.397Z,82.87
2023-03-08T18:05:26.467Z,19.57
2023-03-08T18:08:30.449Z,69.57
2023-03-08T18:11:38.091Z,22.57
2023-03-08T18:14:43.730Z,40.20
2023-03-08T18:17:48.077Z,17.83
2023-03-08T18:20:53.989Z,27.63
2023-03-08T18:23:59.739Z,23.70
2023-03-08T18:27:05.643Z,21.67
2023-03-08T18:30:13.938Z,25.53
2023-03-08T18:33:18.083Z,32.60
2023-03-08T18:36:22.597Z,39.23
2023-03-08T18:39:27.426Z,37.93
2023-03-08T18:42:32.534Z,39.07
2023-03-08T18:45:39.091Z,30.33
2023-03-08T18:48:43.302Z,30.23
2023-03-08T18:51:47.379Z,26.30
2023-03-08T18:54:51.365Z,33.63
2023-03-08T18:57:55.204Z,46.30
2023-03-08T19:01:03.044Z,35.60
2023-03-08T19:04:08.279Z,35.13
2023-03-08T19:07:13.188Z,30.00
2023-03-08T19:10:17.080Z,30.97
2023-03-08T19:13:21.002Z,24.50
2023-03-08T19:16:27.833Z,20.97
2023-03-08T19:19:32.136Z,17.73
2023-03-08T19:22:35.902Z,18.97
2023-03-08T19:26:00.512Z,36.63
2023-03-08T19:29:07.059Z,26.77
2023-03-08T19:32:14.341Z,30.37
2023-03-08T19:35:18.331Z,24.23
2023-03-08T19:38:22.074Z,20.13
2023-03-08T19:41:26.369Z,21.77
2023-03-08T19:44:31.133Z,26.37
2023-03-08T19:47:37.133Z,20.17
2023-03-08T19:50:46.173Z,24.27
2023-03-08T19:53:50.029Z,21.33
2023-03-08T19:56:54.806Z,18.03
2023-03-08T20:00:00.754Z,22.77
2023-03-08T20:03:06.071Z,21.33
2023-03-08T20:06:11.062Z,22.00
2023-03-08T20:09:18.507Z,20.80
2023-03-08T20:12:22.273Z,19.87
2023-03-08T20:15:26.183Z,23.03
2023-03-08T20:18:31.543Z,20.10
2023-03-08T20:21:35.362Z,17.07
2023-03-08T20:24:39.139Z,16.43
2023-03-08T20:27:44.165Z,18.33
2023-03-08T20:30:48.178Z,18.17
2023-03-08T20:33:53.677Z,15.63
2023-03-08T20:36:57.650Z,16.57
2023-03-08T20:40:04.540Z,21.73
2023-03-08T20:43:11.229Z,17.87
2023-03-08T20:46:17.216Z,12.47
2023-03-08T20:49:22.539Z,14.27
2023-03-08T20:52:26.284Z,9.90
2023-03-08T20:55:30.114Z,15.90
2023-03-08T20:58:34.148Z,18.90
2023-03-08T21:01:38.027Z,21.10
2023-03-08T21:04:43.259Z,21.13
2023-03-08T21:07:47.077Z,27.13
2023-03-08T21:10:51.061Z,21.87
2023-03-08T21:13:55.704Z,25.00
2023-03-08T21:16:59.585Z,25.40
2023-03-08T21:20:05.453Z,28.53
2023-03-08T21:23:09.186Z,26.00
2023-03-08T21:26:14.208Z,23.57
2023-03-08T21:29:20.576Z,29.87
2023-03-08T21:32:26.331Z,28.97
2023-03-08T21:35:32.858Z,28.57
2023-03-08T21:38:36.813Z,26.40
2023-03-08T21:41:42.828Z,22.97
2023-03-08T21:44:46.671Z,25.83
2023-03-08T21:47:50.355Z,27.07
2023-03-08T21:50:55.641Z,29.63
2023-03-08T21:53:59.842Z,21.93
2023-03-08T21:57:03.691Z,21.73
2023-03-08T22:00:08.885Z,23.77
2023-03-08T22:03:15.704Z,23.20
2023-03-08T22:06:21.620Z,24.10
2023-03-08T22:09:27.231Z,25.30
2023-03-08T22:12:31.195Z,19.97
2023-03-08T22:15:35.037Z,19.53
2023-03-08T22:18:38.891Z,22.50
2023-03-08T22:21:44.179Z,21.40
2023-03-08T22:24:48.148Z,21.37
2023-03-08T22:27:51.961Z,23.03
2023-03-08T22:30:55.966Z,23.70
2023-03-08T22:34:01.584Z,21.60
2023-03-08T22:37:07.236Z,22.60
2023-03-08T22:40:13.370Z,24.33
2023-03-08T22:43:17.426Z,25.23
2023-03-08T22:46:24.071Z,19.27
2023-03-08T22:49:28.025Z,25.73
2023-03-08T22:52:33.466Z,23.57
2023-03-08T22:55:37.317Z,18.77
2023-03-08T22:58:41.326Z,22.70
2023-03-08T23:01:45.331Z,20.03
2023-03-08T23:04:49.319Z,15.90
2023-03-08T23:07:54.823Z,20.00
2023-03-08T23:10:59.060Z,19.00
2023-03-08T23:14:03.498Z,18.43
2023-03-08T23:17:07.559Z,17.80
2023-03-08T23:20:13.776Z,17.20
2023-03-08T23:23:19.261Z,20.93
2023-03-08T23:26:27.120Z,15.87
2023-03-08T23:29:31.552Z,16.13
2023-03-08T23:32:35.585Z,14.53
2023-03-08T23:35:39.617Z,14.63
2023-03-08T23:38:45.118Z,13.20
2023-03-08T23:41:49.087Z,15.17
2023-03-08T23:44:53.478Z,15.93
2023-03-08T23:47:57.264Z,14.70
2023-03-08T23:51:01.110Z,15.97
2023-03-08T23:54:06.448Z,14.50
2023-03-08T23:57:10.446Z,13.83
